sensor_id;sensor_type;location;lat;lon;timestamp;P1;durP1;ratioP1;P2;durP2;ratioP2
54121;SDS011;40029;58.708;50.190;2022-11-20T00:01:55;14.37;;;4.20;;
54121;SDS011;40029;58.708;50.190;2022-11-20T00:04:26;12.83;;;3.93;;
54121;SDS011;40029;58.708;50.190;2022-11-20T00:06:57;8.93;;;3.93;;
54121;SDS011;40029;58.708;50.190;2022-11-20T00:09:28;23.70;;;3.93;;
54121;SDS011;40029;58.708;50.190;2022-11-20T00:11:59;13.10;;;4.40;;
54121;SDS011;40029;58.708;50.190;2022-11-20T00:14:30;14.13;;;3.80;;
54121;SDS011;40029;58.708;50.190;2022-11-20T00:17:01;17.00;;;4.20;;
54121;SDS011;40029;58.708;50.190;2022-11-20T00:19:32;9.17;;;3.33;;
54121;SDS011;40029;58.708;50.190;2022-11-20T00:22:03;13.13;;;2.77;;
54121;SDS011;40029;58.708;50.190;2022-11-20T00:24:34;13.27;;;3.40;;
54121;SDS011;40029;58.708;50.190;2022-11-20T00:27:05;14.33;;;3.67;;
54121;SDS011;40029;58.708;50.190;2022-11-20T00:29:36;10.63;;;3.60;;
54121;SDS011;40029;58.708;50.190;2022-11-20T00:32:07;8.40;;;4.17;;
54121;SDS011;40029;58.708;50.190;2022-11-20T00:34:38;11.13;;;4.67;;
54121;SDS011;40029;58.708;50.190;2022-11-20T00:37:09;10.93;;;3.93;;
54121;SDS011;40029;58.708;50.190;2022-11-20T00:39:40;19.50;;;6.57;;
54121;SDS011;40029;58.708;50.190;2022-11-20T00:42:11;18.00;;;6.57;;
54121;SDS011;40029;58.708;50.190;2022-11-20T00:44:42;22.17;;;7.20;;
54121;SDS011;40029;58.708;50.190;2022-11-20T00:47:13;15.93;;;6.83;;
54121;SDS011;40029;58.708;50.190;2022-11-20T00:49:44;23.27;;;7.93;;
54121;SDS011;40029;58.708;50.190;2022-11-20T00:52:15;22.60;;;5.70;;
54121;SDS011;40029;58.708;50.190;2022-11-20T00:54:46;23.10;;;5.67;;
54121;SDS011;40029;58.708;50.190;2022-11-20T00:57:17;17.10;;;5.03;;
54121;SDS011;40029;58.708;50.190;2022-11-20T00:59:48;9.83;;;3.93;;
54121;SDS011;40029;58.708;50.190;2022-11-20T01:02:19;16.33;;;4.83;;
54121;SDS011;40029;58.708;50.190;2022-11-20T01:04:50;25.87;;;7.40;;
54121;SDS011;40029;58.708;50.190;2022-11-20T01:07:21;25.90;;;8.53;;
54121;SDS011;40029;58.708;50.190;2022-11-20T01:09:52;31.47;;;6.87;;
54121;SDS011;40029;58.708;50.190;2022-11-20T01:12:23;22.60;;;7.50;;
54121;SDS011;40029;58.708;50.190;2022-11-20T01:14:54;16.13;;;5.43;;
54121;SDS011;40029;58.708;50.190;2022-11-20T01:17:25;16.50;;;6.10;;
54121;SDS011;40029;58.708;50.190;2022-11-20T01:19:56;23.10;;;5.00;;
54121;SDS011;40029;58.708;50.190;2022-11-20T01:22:27;12.60;;;3.97;;
54121;SDS011;40029;58.708;50.190;2022-11-20T01:24:58;16.70;;;3.93;;
54121;SDS011;40029;58.708;50.190;2022-11-20T01:27:29;10.73;;;3.57;;
54121;SDS011;40029;58.708;50.190;2022-11-20T01:30:00;15.70;;;4.13;;
54121;SDS011;40029;58.708;50.190;2022-11-20T01:32:33;17.05;;;5.63;;
54121;SDS011;40029;58.708;50.190;2022-11-20T01:35:05;19.80;;;6.47;;
54121;SDS011;40029;58.708;50.190;2022-11-20T01:37:36;10.43;;;4.33;;
54121;SDS011;40029;58.708;50.190;2022-11-20T01:40:07;17.87;;;6.33;;
54121;SDS011;40029;58.708;50.190;2022-11-20T01:42:38;21.00;;;6.97;;
54121;SDS011;40029;58.708;50.190;2022-11-20T01:48:36;19.03;;;5.40;;
54121;SDS011;40029;58.708;50.190;2022-11-20T01:51:35;20.37;;;5.37;;
54121;SDS011;40029;58.708;50.190;2022-11-20T01:54:25;6.83;;;3.63;;
54121;SDS011;40029;58.708;50.190;2022-11-20T01:57:03;11.83;;;5.10;;
54121;SDS011;40029;58.708;50.190;2022-11-20T01:59:39;26.60;;;5.07;;
54121;SDS011;40029;58.708;50.190;2022-11-20T02:02:15;16.23;;;4.27;;
54121;SDS011;40029;58.708;50.190;2022-11-20T02:04:46;15.23;;;4.90;;
54121;SDS011;40029;58.708;50.190;2022-11-20T02:07:20;28.50;;;9.70;;
54121;SDS011;40029;58.708;50.190;2022-11-20T02:09:52;29.10;;;11.27;;
54121;SDS011;40029;58.708;50.190;2022-11-20T02:12:23;19.13;;;7.83;;
54121;SDS011;40029;58.708;50.190;2022-11-20T02:15:32;17.20;;;6.47;;
54121;SDS011;40029;58.708;50.190;2022-11-20T02:18:04;25.87;;;6.90;;
54121;SDS011;40029;58.708;50.190;2022-11-20T02:20:36;14.50;;;6.50;;
54121;SDS011;40029;58.708;50.190;2022-11-20T02:23:11;37.63;;;5.90;;
54121;SDS011;40029;58.708;50.190;2022-11-20T02:25:47;9.43;;;4.80;;
54121;SDS011;40029;58.708;50.190;2022-11-20T02:28:20;19.00;;;5.50;;
54121;SDS011;40029;58.708;50.190;2022-11-20T02:30:51;13.97;;;6.77;;
54121;SDS011;40029;58.708;50.190;2022-11-20T02:33:22;17.83;;;6.80;;
54121;SDS011;40029;58.708;50.190;2022-11-20T02:35:53;17.57;;;6.17;;
54121;SDS011;40029;58.708;50.190;2022-11-20T02:38:24;24.00;;;8.23;;
54121;SDS011;40029;58.708;50.190;2022-11-20T02:40:55;13.30;;;5.43;;
54121;SDS011;40029;58.708;50.190;2022-11-20T02:43:26;14.50;;;5.83;;
54121;SDS011;40029;58.708;50.190;2022-11-20T02:45:57;12.97;;;5.50;;
54121;SDS011;40029;58.708;50.190;2022-11-20T02:48:28;14.37;;;5.27;;
54121;SDS011;40029;58.708;50.190;2022-11-20T02:50:59;21.53;;;6.67;;
54121;SDS011;40029;58.708;50.190;2022-11-20T02:53:30;11.07;;;4.37;;
54121;SDS011;40029;58.708;50.190;2022-11-20T02:56:01;11.70;;;5.27;;
54121;SDS011;40029;58.708;50.190;2022-11-20T02:58:32;22.00;;;8.50;;
54121;SDS011;40029;58.708;50.190;2022-11-20T03:01:03;17.80;;;6.50;;
54121;SDS011;40029;58.708;50.190;2022-11-20T03:03:34;17.70;;;4.73;;
54121;SDS011;40029;58.708;50.190;2022-11-20T03:06:06;18.53;;;5.37;;
54121;SDS011;40029;58.708;50.190;2022-11-20T03:08:38;12.93;;;4.70;;
54121;SDS011;40029;58.708;50.190;2022-11-20T03:11:09;12.07;;;4.37;;
54121;SDS011;40029;58.708;50.190;2022-11-20T03:13:40;18.63;;;4.80;;
54121;SDS011;40029;58.708;50.190;2022-11-20T03:16:12;19.27;;;5.23;;
54121;SDS011;40029;58.708;50.190;2022-11-20T03:21:16;16.63;;;4.83;;
54121;SDS011;40029;58.708;50.190;2022-11-20T03:23:47;21.97;;;6.67;;
54121;SDS011;40029;58.708;50.190;2022-11-20T03:26:18;24.60;;;7.27;;
54121;SDS011;40029;58.708;50.190;2022-11-20T03:28:52;14.38;;;4.95;;
54121;SDS011;40029;58.708;50.190;2022-11-20T03:31:31;17.43;;;5.00;;
54121;SDS011;40029;58.708;50.190;2022-11-20T03:34:07;20.13;;;5.70;;
54121;SDS011;40029;58.708;50.190;2022-11-20T03:36:40;21.93;;;5.93;;
54121;SDS011;40029;58.708;50.190;2022-11-20T03:39:12;17.20;;;5.90;;
54121;SDS011;40029;58.708;50.190;2022-11-20T03:41:43;24.37;;;6.70;;
54121;SDS011;40029;58.708;50.190;2022-11-20T03:44:15;27.60;;;7.83;;
54121;SDS011;40029;58.708;50.190;2022-11-20T03:46:46;23.37;;;7.20;;
54121;SDS011;40029;58.708;50.190;2022-11-20T03:49:17;31.33;;;8.37;;
54121;SDS011;40029;58.708;50.190;2022-11-20T03:51:48;29.23;;;9.77;;
54121;SDS011;40029;58.708;50.190;2022-11-20T03:54:19;34.33;;;8.63;;
54121;SDS011;40029;58.708;50.190;2022-11-20T03:56:50;23.03;;;7.17;;
54121;SDS011;40029;58.708;50.190;2022-11-20T03:59:21;30.97;;;9.40;;
54121;SDS011;40029;58.708;50.190;2022-11-20T04:01:52;27.57;;;9.40;;
54121;SDS011;40029;58.708;50.190;2022-11-20T04:04:22;35.83;;;11.43;;
54121;SDS011;40029;58.708;50.190;2022-11-20T04:06:53;20.17;;;6.90;;
54121;SDS011;40029;58.708;50.190;2022-11-20T04:09:24;9.77;;;4.43;;
54121;SDS011;40029;58.708;50.190;2022-11-20T04:11:56;16.50;;;5.40;;
54121;SDS011;40029;58.708;50.190;2022-11-20T04:14:26;19.50;;;5.63;;
54121;SDS011;40029;58.708;50.190;2022-11-20T04:16:57;15.97;;;6.33;;
54121;SDS011;40029;58.708;50.190;2022-11-20T04:19:28;15.13;;;5.73;;
54121;SDS011;40029;58.708;50.190;2022-11-20T04:21:59;42.93;;;7.17;;
54121;SDS011;40029;58.708;50.190;2022-11-20T04:24:30;19.27;;;6.23;;
54121;SDS011;40029;58.708;50.190;2022-11-20T04:27:01;22.03;;;6.20;;
54121;SDS011;40029;58.708;50.190;2022-11-20T04:29:32;18.00;;;5.77;;
54121;SDS011;40029;58.708;50.190;2022-11-20T04:32:03;20.70;;;5.63;;
54121;SDS011;40029;58.708;50.190;2022-11-20T04:34:34;20.27;;;5.63;;
54121;SDS011;40029;58.708;50.190;2022-11-20T04:37:05;23.53;;;7.20;;
54121;SDS011;40029;58.708;50.190;2022-11-20T04:39:36;23.30;;;8.80;;
54121;SDS011;40029;58.708;50.190;2022-11-20T04:42:08;14.97;;;5.53;;
54121;SDS011;40029;58.708;50.190;2022-11-20T04:44:58;21.60;;;6.47;;
54121;SDS011;40029;58.708;50.190;2022-11-20T04:47:29;27.73;;;6.60;;
54121;SDS011;40029;58.708;50.190;2022-11-20T04:50:00;20.43;;;7.00;;
54121;SDS011;40029;58.708;50.190;2022-11-20T04:52:33;26.80;;;7.47;;
54121;SDS011;40029;58.708;50.190;2022-11-20T04:55:04;39.27;;;7.80;;
54121;SDS011;40029;58.708;50.190;2022-11-20T04:57:36;38.60;;;10.87;;
54121;SDS011;40029;58.708;50.190;2022-11-20T05:00:07;67.30;;;15.17;;
54121;SDS011;40029;58.708;50.190;2022-11-20T05:02:39;53.00;;;12.70;;
54121;SDS011;40029;58.708;50.190;2022-11-20T05:05:09;51.97;;;11.97;;
54121;SDS011;40029;58.708;50.190;2022-11-20T05:07:40;37.30;;;7.90;;
54121;SDS011;40029;58.708;50.190;2022-11-20T05:10:11;51.90;;;13.13;;
54121;SDS011;40029;58.708;50.190;2022-11-20T05:12:43;82.70;;;16.17;;
54121;SDS011;40029;58.708;50.190;2022-11-20T05:15:14;74.23;;;12.63;;
54121;SDS011;40029;58.708;50.190;2022-11-20T05:17:49;54.97;;;9.93;;
54121;SDS011;40029;58.708;50.190;2022-11-20T05:20:21;40.57;;;8.83;;
54121;SDS011;40029;58.708;50.190;2022-11-20T05:22:52;27.50;;;7.03;;
54121;SDS011;40029;58.708;50.190;2022-11-20T05:25:26;47.37;;;11.40;;
54121;SDS011;40029;58.708;50.190;2022-11-20T05:27:57;47.10;;;8.17;;
54121;SDS011;40029;58.708;50.190;2022-11-20T05:30:28;29.40;;;7.23;;
54121;SDS011;40029;58.708;50.190;2022-11-20T05:32:59;12.83;;;3.77;;
54121;SDS011;40029;58.708;50.190;2022-11-20T05:35:30;14.47;;;3.73;;
54121;SDS011;40029;58.708;50.190;2022-11-20T05:38:01;20.30;;;5.07;;
54121;SDS011;40029;58.708;50.190;2022-11-20T05:40:32;21.60;;;5.80;;
54121;SDS011;40029;58.708;50.190;2022-11-20T05:43:03;22.23;;;5.60;;
54121;SDS011;40029;58.708;50.190;2022-11-20T05:45:34;19.67;;;5.30;;
54121;SDS011;40029;58.708;50.190;2022-11-20T05:48:05;41.43;;;8.33;;
54121;SDS011;40029;58.708;50.190;2022-11-20T05:50:36;42.13;;;8.00;;
54121;SDS011;40029;58.708;50.190;2022-11-20T05:53:07;45.07;;;7.93;;
54121;SDS011;40029;58.708;50.190;2022-11-20T05:55:38;42.90;;;9.13;;
54121;SDS011;40029;58.708;50.190;2022-11-20T05:58:09;30.60;;;8.83;;
54121;SDS011;40029;58.708;50.190;2022-11-20T06:00:40;34.27;;;8.27;;
54121;SDS011;40029;58.708;50.190;2022-11-20T06:03:11;48.47;;;9.90;;
54121;SDS011;40029;58.708;50.190;2022-11-20T06:05:42;49.10;;;11.63;;
54121;SDS011;40029;58.708;50.190;2022-11-20T06:08:13;47.67;;;9.77;;
54121;SDS011;40029;58.708;50.190;2022-11-20T06:10:44;96.60;;;22.63;;
54121;SDS011;40029;58.708;50.190;2022-11-20T06:13:15;119.40;;;28.40;;
54121;SDS011;40029;58.708;50.190;2022-11-20T06:15:49;50.77;;;12.87;;
54121;SDS011;40029;58.708;50.190;2022-11-20T06:18:25;49.10;;;14.00;;
54121;SDS011;40029;58.708;50.190;2022-11-20T06:23:39;56.17;;;14.73;;
54121;SDS011;40029;58.708;50.190;2022-11-20T06:26:11;44.50;;;13.10;;
54121;SDS011;40029;58.708;50.190;2022-11-20T06:28:44;34.75;;;10.73;;
54121;SDS011;40029;58.708;50.190;2022-11-20T06:31:17;34.20;;;10.10;;
54121;SDS011;40029;58.708;50.190;2022-11-20T06:33:50;48.00;;;11.93;;
54121;SDS011;40029;58.708;50.190;2022-11-20T06:36:22;44.23;;;12.37;;
54121;SDS011;40029;58.708;50.190;2022-11-20T06:38:53;111.63;;;47.43;;
54121;SDS011;40029;58.708;50.190;2022-11-20T06:41:24;51.37;;;14.27;;
54121;SDS011;40029;58.708;50.190;2022-11-20T06:43:55;56.97;;;13.53;;
54121;SDS011;40029;58.708;50.190;2022-11-20T06:46:26;75.23;;;16.53;;
54121;SDS011;40029;58.708;50.190;2022-11-20T06:48:57;78.43;;;15.27;;
54121;SDS011;40029;58.708;50.190;2022-11-20T06:51:28;42.10;;;14.20;;
54121;SDS011;40029;58.708;50.190;2022-11-20T06:53:59;74.07;;;18.43;;
54121;SDS011;40029;58.708;50.190;2022-11-20T06:56:31;57.50;;;19.80;;
54121;SDS011;40029;58.708;50.190;2022-11-20T06:59:05;46.93;;;17.50;;
54121;SDS011;40029;58.708;50.190;2022-11-20T07:01:37;44.43;;;15.70;;
54121;SDS011;40029;58.708;50.190;2022-11-20T07:04:08;73.47;;;15.73;;
54121;SDS011;40029;58.708;50.190;2022-11-20T07:06:39;50.57;;;12.23;;
54121;SDS011;40029;58.708;50.190;2022-11-20T07:09:10;33.00;;;11.17;;
54121;SDS011;40029;58.708;50.190;2022-11-20T07:11:41;88.87;;;16.20;;
54121;SDS011;40029;58.708;50.190;2022-11-20T07:14:12;36.27;;;8.63;;
54121;SDS011;40029;58.708;50.190;2022-11-20T07:16:43;25.33;;;9.00;;
54121;SDS011;40029;58.708;50.190;2022-11-20T07:19:14;112.47;;;11.70;;
54121;SDS011;40029;58.708;50.190;2022-11-20T07:21:45;32.53;;;7.80;;
54121;SDS011;40029;58.708;50.190;2022-11-20T07:24:17;21.60;;;7.80;;
54121;SDS011;40029;58.708;50.190;2022-11-20T07:26:48;41.33;;;10.57;;
54121;SDS011;40029;58.708;50.190;2022-11-20T07:29:21;32.35;;;11.65;;
54121;SDS011;40029;58.708;50.190;2022-11-20T07:31:52;31.50;;;10.63;;
54121;SDS011;40029;58.708;50.190;2022-11-20T07:34:25;50.20;;;17.65;;
54121;SDS011;40029;58.708;50.190;2022-11-20T07:36:56;37.13;;;11.13;;
54121;SDS011;40029;58.708;50.190;2022-11-20T07:39:27;49.20;;;13.80;;
54121;SDS011;40029;58.708;50.190;2022-11-20T07:41:58;47.23;;;13.27;;
54121;SDS011;40029;58.708;50.190;2022-11-20T07:44:30;39.93;;;13.20;;
54121;SDS011;40029;58.708;50.190;2022-11-20T07:47:01;71.23;;;12.93;;
54121;SDS011;40029;58.708;50.190;2022-11-20T07:49:32;46.50;;;11.50;;
54121;SDS011;40029;58.708;50.190;2022-11-20T07:52:03;22.80;;;7.70;;
54121;SDS011;40029;58.708;50.190;2022-11-20T07:54:34;41.97;;;7.23;;
54121;SDS011;40029;58.708;50.190;2022-11-20T07:57:05;31.97;;;7.87;;
54121;SDS011;40029;58.708;50.190;2022-11-20T07:59:36;22.67;;;6.50;;
54121;SDS011;40029;58.708;50.190;2022-11-20T08:02:12;18.57;;;6.70;;
54121;SDS011;40029;58.708;50.190;2022-11-20T08:04:43;19.75;;;6.00;;
54121;SDS011;40029;58.708;50.190;2022-11-20T08:07:14;17.47;;;4.97;;
54121;SDS011;40029;58.708;50.190;2022-11-20T08:09:45;51.27;;;7.10;;
54121;SDS011;40029;58.708;50.190;2022-11-20T08:12:20;23.50;;;6.20;;
54121;SDS011;40029;58.708;50.190;2022-11-20T08:15:10;21.73;;;7.60;;
54121;SDS011;40029;58.708;50.190;2022-11-20T08:17:41;70.63;;;8.77;;
54121;SDS011;40029;58.708;50.190;2022-11-20T08:20:12;36.43;;;8.30;;
54121;SDS011;40029;58.708;50.190;2022-11-20T08:22:43;38.50;;;11.57;;
54121;SDS011;40029;58.708;50.190;2022-11-20T08:25:14;44.20;;;14.97;;
54121;SDS011;40029;58.708;50.190;2022-11-20T08:27:45;39.17;;;10.93;;
54121;SDS011;40029;58.708;50.190;2022-11-20T08:30:16;24.13;;;7.17;;
54121;SDS011;40029;58.708;50.190;2022-11-20T08:32:48;18.20;;;7.43;;
54121;SDS011;40029;58.708;50.190;2022-11-20T08:35:19;30.70;;;7.73;;
54121;SDS011;40029;58.708;50.190;2022-11-20T08:37:51;18.03;;;5.90;;
54121;SDS011;40029;58.708;50.190;2022-11-20T08:40:22;18.83;;;7.20;;
54121;SDS011;40029;58.708;50.190;2022-11-20T08:42:53;16.80;;;6.70;;
54121;SDS011;40029;58.708;50.190;2022-11-20T08:45:24;19.80;;;6.57;;
54121;SDS011;40029;58.708;50.190;2022-11-20T08:47:59;102.40;;;11.33;;
54121;SDS011;40029;58.708;50.190;2022-11-20T08:50:31;36.57;;;8.80;;
54121;SDS011;40029;58.708;50.190;2022-11-20T08:53:03;26.07;;;8.60;;
54121;SDS011;40029;58.708;50.190;2022-11-20T08:55:35;26.50;;;8.70;;
54121;SDS011;40029;58.708;50.190;2022-11-20T08:58:07;29.43;;;9.17;;
54121;SDS011;40029;58.708;50.190;2022-11-20T09:00:38;34.77;;;9.13;;
54121;SDS011;40029;58.708;50.190;2022-11-20T09:03:09;51.93;;;11.50;;
54121;SDS011;40029;58.708;50.190;2022-11-20T09:05:40;41.23;;;12.20;;
54121;SDS011;40029;58.708;50.190;2022-11-20T09:08:11;43.37;;;12.40;;
54121;SDS011;40029;58.708;50.190;2022-11-20T09:10:42;45.57;;;13.23;;
54121;SDS011;40029;58.708;50.190;2022-11-20T09:13:13;54.73;;;14.03;;
54121;SDS011;40029;58.708;50.190;2022-11-20T09:15:44;48.40;;;14.53;;
54121;SDS011;40029;58.708;50.190;2022-11-20T09:18:15;50.97;;;14.00;;
54121;SDS011;40029;58.708;50.190;2022-11-20T09:20:46;51.07;;;16.47;;
54121;SDS011;40029;58.708;50.190;2022-11-20T09:23:17;66.97;;;20.40;;
54121;SDS011;40029;58.708;50.190;2022-11-20T09:25:48;60.13;;;18.20;;
54121;SDS011;40029;58.708;50.190;2022-11-20T09:28:19;56.40;;;16.67;;
54121;SDS011;40029;58.708;50.190;2022-11-20T09:30:50;59.77;;;17.97;;
54121;SDS011;40029;58.708;50.190;2022-11-20T09:33:21;52.23;;;17.00;;
54121;SDS011;40029;58.708;50.190;2022-11-20T09:35:52;64.00;;;18.33;;
54121;SDS011;40029;58.708;50.190;2022-11-20T09:38:23;57.67;;;18.93;;
54121;SDS011;40029;58.708;50.190;2022-11-20T09:40:58;43.27;;;15.77;;
54121;SDS011;40029;58.708;50.190;2022-11-20T09:43:39;61.20;;;18.03;;
54121;SDS011;40029;58.708;50.190;2022-11-20T09:46:57;55.67;;;17.83;;
54121;SDS011;40029;58.708;50.190;2022-11-20T09:54:50;96.13;;;23.13;;
54121;SDS011;40029;58.708;50.190;2022-11-20T12:11:03;97.23;;;21.30;;
54121;SDS011;40029;58.708;50.190;2022-11-20T12:16:21;90.67;;;18.83;;
54121;SDS011;40029;58.708;50.190;2022-11-20T12:18:53;73.17;;;17.57;;
54121;SDS011;40029;58.708;50.190;2022-11-20T12:24:30;66.77;;;17.33;;
54121;SDS011;40029;58.708;50.190;2022-11-20T12:32:35;58.27;;;20.17;;
54121;SDS011;40029;58.708;50.190;2022-11-20T12:44:21;110.27;;;22.27;;
54121;SDS011;40029;58.708;50.190;2022-11-20T12:53:39;151.30;;;43.13;;
54121;SDS011;40029;58.708;50.190;2022-11-20T13:02:08;360.10;;;112.67;;
54121;SDS011;40029;58.708;50.190;2022-11-20T13:07:54;405.43;;;112.53;;
54121;SDS011;40029;58.708;50.190;2022-11-20T13:19:29;431.20;;;142.50;;
54121;SDS011;40029;58.708;50.190;2022-11-20T13:22:00;491.43;;;168.90;;
54121;SDS011;40029;58.708;50.190;2022-11-20T13:24:31;470.07;;;146.10;;
54121;SDS011;40029;58.708;50.190;2022-11-20T13:29:35;398.60;;;112.20;;
54121;SDS011;40029;58.708;50.190;2022-11-20T13:32:14;397.90;;;117.00;;
54121;SDS011;40029;58.708;50.190;2022-11-20T13:34:54;398.83;;;117.10;;
54121;SDS011;40029;58.708;50.190;2022-11-20T13:37:36;426.77;;;132.50;;
54121;SDS011;40029;58.708;50.190;2022-11-20T13:45:23;478.30;;;148.77;;
54121;SDS011;40029;58.708;50.190;2022-11-20T13:47:58;446.70;;;143.97;;
54121;SDS011;40029;58.708;50.190;2022-11-20T13:56:15;390.10;;;117.57;;
54121;SDS011;40029;58.708;50.190;2022-11-20T14:01:40;303.50;;;88.73;;
54121;SDS011;40029;58.708;50.190;2022-11-20T14:04:18;455.97;;;137.17;;
54121;SDS011;40029;58.708;50.190;2022-11-20T14:06:54;372.47;;;103.93;;
54121;SDS011;40029;58.708;50.190;2022-11-20T14:09:30;260.13;;;79.17;;
54121;SDS011;40029;58.708;50.190;2022-11-20T14:12:04;295.67;;;89.33;;
54121;SDS011;40029;58.708;50.190;2022-11-20T14:14:51;347.13;;;105.60;;
54121;SDS011;40029;58.708;50.190;2022-11-20T14:17:29;317.93;;;97.73;;
54121;SDS011;40029;58.708;50.190;2022-11-20T14:20:04;447.77;;;145.13;;
54121;SDS011;40029;58.708;50.190;2022-11-20T14:22:49;451.43;;;145.63;;
54121;SDS011;40029;58.708;50.190;2022-11-20T14:25:24;600.53;;;229.00;;
54121;SDS011;40029;58.708;50.190;2022-11-20T14:28:01;683.23;;;266.90;;
54121;SDS011;40029;58.708;50.190;2022-11-20T14:30:43;561.60;;;201.27;;
54121;SDS011;40029;58.708;50.190;2022-11-20T14:33:17;562.97;;;209.43;;
54121;SDS011;40029;58.708;50.190;2022-11-20T14:35:56;545.65;;;205.43;;
54121;SDS011;40029;58.708;50.190;2022-11-20T14:38:28;524.63;;;192.13;;
54121;SDS011;40029;58.708;50.190;2022-11-20T14:43:37;547.97;;;204.27;;
54121;SDS011;40029;58.708;50.190;2022-11-20T14:46:09;620.93;;;230.67;;
54121;SDS011;40029;58.708;50.190;2022-11-20T14:48:41;552.10;;;204.53;;
54121;SDS011;40029;58.708;50.190;2022-11-20T14:51:32;657.63;;;247.87;;
54121;SDS011;40029;58.708;50.190;2022-11-20T14:54:15;680.17;;;253.57;;
54121;SDS011;40029;58.708;50.190;2022-11-20T14:57:22;422.27;;;127.40;;
54121;SDS011;40029;58.708;50.190;2022-11-20T15:00:06;429.70;;;131.70;;
54121;SDS011;40029;58.708;50.190;2022-11-20T15:02:41;553.43;;;186.53;;
54121;SDS011;40029;58.708;50.190;2022-11-20T15:05:15;418.70;;;110.45;;
54121;SDS011;40029;58.708;50.190;2022-11-20T15:07:49;339.45;;;99.50;;
54121;SDS011;40029;58.708;50.190;2022-11-20T15:10:23;371.57;;;111.00;;
54121;SDS011;40029;58.708;50.190;2022-11-20T15:13:00;328.60;;;96.85;;
54121;SDS011;40029;58.708;50.190;2022-11-20T15:15:46;366.10;;;113.27;;
54121;SDS011;40029;58.708;50.190;2022-11-20T15:18:19;418.00;;;120.07;;
54121;SDS011;40029;58.708;50.190;2022-11-20T15:20:54;588.53;;;186.73;;
54121;SDS011;40029;58.708;50.190;2022-11-20T15:23:27;619.45;;;196.77;;
54121;SDS011;40029;58.708;50.190;2022-11-20T15:25:59;574.57;;;186.73;;
54121;SDS011;40029;58.708;50.190;2022-11-20T15:28:39;541.50;;;170.87;;
54121;SDS011;40029;58.708;50.190;2022-11-20T15:31:12;390.00;;;117.50;;
54121;SDS011;40029;58.708;50.190;2022-11-20T15:33:44;333.70;;;97.27;;
54121;SDS011;40029;58.708;50.190;2022-11-20T15:36:15;299.00;;;88.33;;
54121;SDS011;40029;58.708;50.190;2022-11-20T15:38:46;307.03;;;92.57;;
54121;SDS011;40029;58.708;50.190;2022-11-20T15:41:17;299.10;;;92.50;;
54121;SDS011;40029;58.708;50.190;2022-11-20T15:43:48;279.67;;;83.43;;
54121;SDS011;40029;58.708;50.190;2022-11-20T15:46:23;369.63;;;103.82;;
54121;SDS011;40029;58.708;50.190;2022-11-20T15:48:59;287.70;;;83.73;;
54121;SDS011;40029;58.708;50.190;2022-11-20T15:51:31;249.43;;;73.97;;
54121;SDS011;40029;58.708;50.190;2022-11-20T15:54:14;172.07;;;50.20;;
54121;SDS011;40029;58.708;50.190;2022-11-20T15:56:48;201.83;;;59.63;;
54121;SDS011;40029;58.708;50.190;2022-11-20T15:59:22;216.23;;;57.47;;
54121;SDS011;40029;58.708;50.190;2022-11-20T16:01:53;244.20;;;66.70;;
54121;SDS011;40029;58.708;50.190;2022-11-20T16:04:24;230.83;;;69.70;;
54121;SDS011;40029;58.708;50.190;2022-11-20T16:06:55;255.67;;;68.07;;
54121;SDS011;40029;58.708;50.190;2022-11-20T16:09:26;228.53;;;50.23;;
54121;SDS011;40029;58.708;50.190;2022-11-20T16:11:57;97.80;;;29.73;;
54121;SDS011;40029;58.708;50.190;2022-11-20T16:14:29;90.40;;;28.90;;
54121;SDS011;40029;58.708;50.190;2022-11-20T16:17:19;99.50;;;30.30;;
54121;SDS011;40029;58.708;50.190;2022-11-20T16:20:10;219.00;;;32.50;;
54121;SDS011;40029;58.708;50.190;2022-11-20T16:22:42;94.90;;;28.93;;
54121;SDS011;40029;58.708;50.190;2022-11-20T16:25:13;132.50;;;39.83;;
54121;SDS011;40029;58.708;50.190;2022-11-20T16:27:44;276.87;;;74.17;;
54121;SDS011;40029;58.708;50.190;2022-11-20T16:30:15;252.60;;;69.17;;
54121;SDS011;40029;58.708;50.190;2022-11-20T16:32:46;236.47;;;65.43;;
54121;SDS011;40029;58.708;50.190;2022-11-20T16:35:17;245.23;;;67.40;;
54121;SDS011;40029;58.708;50.190;2022-11-20T16:37:48;244.77;;;68.77;;
54121;SDS011;40029;58.708;50.190;2022-11-20T16:40:19;254.17;;;68.23;;
54121;SDS011;40029;58.708;50.190;2022-11-20T16:42:50;209.53;;;63.53;;
54121;SDS011;40029;58.708;50.190;2022-11-20T16:45:22;264.73;;;69.43;;
54121;SDS011;40029;58.708;50.190;2022-11-20T16:47:53;276.47;;;76.87;;
54121;SDS011;40029;58.708;50.190;2022-11-20T16:50:24;267.17;;;77.07;;
54121;SDS011;40029;58.708;50.190;2022-11-20T16:52:55;351.07;;;100.77;;
54121;SDS011;40029;58.708;50.190;2022-11-20T16:55:26;424.20;;;136.20;;
54121;SDS011;40029;58.708;50.190;2022-11-20T16:57:57;354.67;;;106.07;;
54121;SDS011;40029;58.708;50.190;2022-11-20T17:00:29;197.80;;;57.53;;
54121;SDS011;40029;58.708;50.190;2022-11-20T17:03:00;162.17;;;43.30;;
54121;SDS011;40029;58.708;50.190;2022-11-20T17:05:32;147.73;;;40.43;;
54121;SDS011;40029;58.708;50.190;2022-11-20T17:08:04;278.97;;;78.40;;
54121;SDS011;40029;58.708;50.190;2022-11-20T17:10:36;296.93;;;82.50;;
54121;SDS011;40029;58.708;50.190;2022-11-20T17:13:07;312.80;;;87.40;;
54121;SDS011;40029;58.708;50.190;2022-11-20T17:15:38;302.50;;;82.20;;
54121;SDS011;40029;58.708;50.190;2022-11-20T17:18:09;310.03;;;81.83;;
54121;SDS011;40029;58.708;50.190;2022-11-20T17:20:40;280.50;;;80.70;;
54121;SDS011;40029;58.708;50.190;2022-11-20T17:23:11;313.50;;;91.83;;
54121;SDS011;40029;58.708;50.190;2022-11-20T17:25:42;292.43;;;80.83;;
54121;SDS011;40029;58.708;50.190;2022-11-20T17:28:13;311.67;;;88.90;;
54121;SDS011;40029;58.708;50.190;2022-11-20T17:30:44;334.07;;;94.70;;
54121;SDS011;40029;58.708;50.190;2022-11-20T17:33:15;341.97;;;104.00;;
54121;SDS011;40029;58.708;50.190;2022-11-20T17:35:46;384.90;;;115.87;;
54121;SDS011;40029;58.708;50.190;2022-11-20T17:38:17;382.70;;;116.93;;
54121;SDS011;40029;58.708;50.190;2022-11-20T17:40:48;402.40;;;125.87;;
54121;SDS011;40029;58.708;50.190;2022-11-20T17:43:19;390.47;;;123.07;;
54121;SDS011;40029;58.708;50.190;2022-11-20T17:45:50;452.67;;;147.43;;
54121;SDS011;40029;58.708;50.190;2022-11-20T17:48:21;465.90;;;148.73;;
54121;SDS011;40029;58.708;50.190;2022-11-20T17:50:52;418.10;;;127.50;;
54121;SDS011;40029;58.708;50.190;2022-11-20T17:53:33;408.63;;;127.83;;
54121;SDS011;40029;58.708;50.190;2022-11-20T17:56:06;321.97;;;98.10;;
54121;SDS011;40029;58.708;50.190;2022-11-20T17:58:56;335.47;;;91.47;;
54121;SDS011;40029;58.708;50.190;2022-11-20T18:01:27;356.13;;;102.73;;
54121;SDS011;40029;58.708;50.190;2022-11-20T18:03:58;365.47;;;105.37;;
54121;SDS011;40029;58.708;50.190;2022-11-20T18:06:29;350.30;;;99.37;;
54121;SDS011;40029;58.708;50.190;2022-11-20T18:09:01;365.63;;;107.07;;
54121;SDS011;40029;58.708;50.190;2022-11-20T18:11:35;386.20;;;110.33;;
54121;SDS011;40029;58.708;50.190;2022-11-20T18:14:10;396.30;;;111.20;;